Time;durP1;ratioP1;P1;durP2;ratioP2;P2;SDS_P1;SDS_P2;PMS_P1;PMS_P2;Temp;Humidity;BMP_temperature;BMP_pressure;BME280_temperature;BME280_humidity;BME280_pressure;Samples;Min_cycle;Max_cycle;Signal;HPM_P1;HPM_P2
2022/10/04 00:00:25;;;;;;;;;;;8.00;99.90;;;;;;5064575;28;20203;-72
2022/10/04 00:02:52;;;;;;;;;;;8.00;99.90;;;;;;5061944;28;19921;-72
2022/10/04 00:05:21;;;;;;;;;;;8.00;99.90;;;;;;5059772;28;19927;-72
2022/10/04 00:07:51;;;;;;;;;;;7.90;99.90;;;;;;5064268;28;19942;-72
2022/10/04 00:10:18;;;;;;;;;;;7.90;99.90;;;;;;5064026;28;19920;-72
2022/10/04 00:12:47;;;;;;;;;;;7.80;99.90;;;;;;5064490;28;20003;-72
2022/10/04 00:15:20;;;;;;;;;;;7.80;99.90;;;;;;5063888;28;19921;-71
2022/10/04 00:17:59;;;;;;;;;;;7.80;99.90;;;;;;5064289;28;19983;-72
2022/10/04 00:20:58;;;;;;;;;;;7.80;99.90;;;;;;5064122;28;19921;-72
2022/10/04 00:23:28;;;;;;;;;;;7.70;99.90;;;;;;5002501;28;20208;-72
2022/10/04 00:25:58;;;;;;;;;;;7.70;99.90;;;;;;5002022;28;19988;-72
2022/10/04 00:28:29;;;;;;;;;;;7.70;99.90;;;;;;5032112;28;19920;-71
2022/10/04 00:31:17;;;;;;;;;;;7.70;99.90;;;;;;5063211;28;19927;-72
2022/10/04 00:33:44;;;;;;;;;;;7.70;99.90;;;;;;5054054;28;19992;-72
2022/10/04 00:36:44;;;;;;;;;;;7.60;99.90;;;;;;5050882;28;19921;-72
2022/10/04 00:39:27;;;;;;;;;;;7.60;99.90;;;;;;5002107;28;20190;-72
2022/10/04 00:41:57;;;;;;;;;;;7.50;99.90;;;;;;4982825;28;20005;-72
2022/10/04 00:44:28;;;;;;;;;;;7.50;99.90;;;;;;5017710;28;20212;-72
2022/10/04 00:46:57;;;;;;;;;;;7.50;99.90;;;;;;5047346;28;20000;-72
2022/10/04 00:49:26;;;;;;;;;;;7.50;99.90;;;;;;5055177;28;19920;-72
2022/10/04 00:51:55;;;;;;;;;;;7.50;99.90;;;;;;5052432;28;19927;-72
2022/10/04 00:54:25;;;;;;;;;;;7.50;99.90;;;;;;5063071;28;19928;-72
2022/10/04 00:56:53;;;;;;;;;;;7.50;99.90;;;;;;5063146;28;19927;-72
2022/10/04 00:59:27;;;;;;;;;;;7.50;99.90;;;;;;5063517;28;19980;-72
2022/10/04 01:01:56;;;;;;;;;;;7.50;99.90;;;;;;5063114;28;20111;-72
2022/10/04 01:04:26;;;;;;;;;;;7.50;99.90;;;;;;5062545;28;20123;-71
2022/10/04 01:06:53;;;;;;;;;;;7.50;99.90;;;;;;5062931;28;19980;-73
2022/10/04 01:09:21;;;;;;;;;;;7.50;99.90;;;;;;5062970;28;19991;-72
2022/10/04 01:11:54;;;;;;;;;;;7.50;99.90;;;;;;5063328;28;19988;-73
2022/10/04 01:14:25;;;;;;;;;;;7.40;99.90;;;;;;5062907;28;19927;-72
2022/10/04 01:16:52;;;;;;;;;;;7.40;99.90;;;;;;5062829;28;19928;-70
2022/10/04 01:19:31;;;;;;;;;;;7.50;99.90;;;;;;5062614;28;19964;-72
2022/10/04 01:22:00;;;;;;;;;;;7.40;99.90;;;;;;5049439;28;20212;-71
2022/10/04 01:24:33;;;;;;;;;;;7.30;99.90;;;;;;5063002;28;19921;-72
2022/10/04 01:27:00;;;;;;;;;;;7.10;99.90;;;;;;5066276;28;19920;-72
2022/10/04 01:29:28;;;;;;;;;;;7.00;99.90;;;;;;5064782;28;19975;-72
2022/10/04 01:31:55;;;;;;;;;;;7.00;99.90;;;;;;5062860;28;20127;-72
2022/10/04 01:34:23;;;;;;;;;;;7.00;99.90;;;;;;5062864;28;19948;-72
2022/10/04 01:36:51;;;;;;;;;;;7.00;99.90;;;;;;5062600;28;20164;-72
2022/10/04 01:39:18;;;;;;;;;;;6.90;99.90;;;;;;5063077;28;19985;-72
2022/10/04 01:41:48;;;;;;;;;;;6.90;99.90;;;;;;5065681;28;20200;-72
2022/10/04 01:44:18;;;;;;;;;;;6.90;99.90;;;;;;5066440;28;19927;-72
2022/10/04 01:46:46;;;;;;;;;;;6.90;99.90;;;;;;5066664;28;19928;-72
2022/10/04 01:49:15;;;;;;;;;;;6.90;99.90;;;;;;5066849;28;19921;-70
2022/10/04 01:51:44;;;;;;;;;;;6.80;99.90;;;;;;5066824;28;19927;-72
2022/10/04 01:54:12;;;;;;;;;;;6.80;99.90;;;;;;5066595;28;19921;-71
2022/10/04 01:56:41;;;;;;;;;;;6.80;99.90;;;;;;5066200;28;19927;-72
2022/10/04 01:59:16;;;;;;;;;;;6.80;99.90;;;;;;5066507;28;19929;-72
2022/10/04 02:01:47;;;;;;;;;;;6.70;99.90;;;;;;5061588;28;19964;-71
2022/10/04 02:04:15;;;;;;;;;;;6.70;99.90;;;;;;5060727;28;20117;-71
2022/10/04 02:06:43;;;;;;;;;;;6.70;99.90;;;;;;5065897;28;20208;-71
2022/10/04 02:09:11;;;;;;;;;;;6.70;99.90;;;;;;5066636;28;20190;-72
2022/10/04 02:11:40;;;;;;;;;;;6.70;99.90;;;;;;5066293;28;19927;-72
2022/10/04 02:14:11;;;;;;;;;;;6.60;99.90;;;;;;5066276;28;19963;-72
2022/10/04 02:16:38;;;;;;;;;;;6.60;99.90;;;;;;5065804;28;20234;-72
2022/10/04 02:19:08;;;;;;;;;;;6.60;99.90;;;;;;5065988;28;19951;-72
2022/10/04 02:21:35;;;;;;;;;;;6.60;99.90;;;;;;5064909;28;19921;-71
2022/10/04 02:24:02;;;;;;;;;;;6.60;99.90;;;;;;5066239;28;19929;-72
2022/10/04 02:26:28;;;;;;;;;;;6.50;99.90;;;;;;5065529;28;19967;-72
2022/10/04 02:28:55;;;;;;;;;;;6.50;99.90;;;;;;5066403;28;19943;-72
2022/10/04 02:34:07;;;;;;;;;;;6.50;99.90;;;;;;5065885;28;20147;-71
2022/10/04 02:36:36;;;;;;;;;;;6.40;99.90;;;;;;5064994;28;20282;-72
2022/10/04 02:39:04;;;;;;;;;;;6.40;99.90;;;;;;5065628;28;19983;-72
2022/10/04 02:41:33;;;;;;;;;;;6.40;99.90;;;;;;5065426;28;19928;-72
2022/10/04 02:44:02;;;;;;;;;;;6.40;99.90;;;;;;5065598;28;19959;-72
2022/10/04 02:46:33;;;;;;;;;;;6.40;99.90;;;;;;5065845;28;19983;-72
2022/10/04 02:49:01;;;;;;;;;;;6.30;99.90;;;;;;5066006;28;19996;-72
2022/10/04 02:51:31;;;;;;;;;;;6.30;99.90;;;;;;5065890;28;20033;-72
2022/10/04 02:54:01;;;;;;;;;;;6.30;99.90;;;;;;5064476;28;19971;-72
2022/10/04 02:56:28;;;;;;;;;;;6.30;99.90;;;;;;5064930;28;19927;-72
2022/10/04 02:58:59;;;;;;;;;;;6.30;99.90;;;;;;5065534;28;19921;-71
2022/10/04 03:01:27;;;;;;;;;;;6.30;99.90;;;;;;5065157;28;20236;-71
2022/10/04 03:03:56;;;;;;;;;;;6.20;99.90;;;;;;5059271;28;20120;-72
2022/10/04 03:06:25;;;;;;;;;;;6.20;99.90;;;;;;5060975;28;20208;-72
2022/10/04 03:08:53;;;;;;;;;;;6.20;99.90;;;;;;5060472;28;19966;-71
2022/10/04 03:11:21;;;;;;;;;;;6.20;99.90;;;;;;5065402;28;19921;-72
2022/10/04 03:13:50;;;;;;;;;;;6.20;99.90;;;;;;5064863;28;19921;-72
2022/10/04 03:16:17;;;;;;;;;;;6.20;99.90;;;;;;5065003;28;19928;-70
2022/10/04 03:18:45;;;;;;;;;;;6.20;99.90;;;;;;5065216;28;19921;-71
2022/10/04 03:21:14;;;;;;;;;;;6.20;99.90;;;;;;5065092;28;19921;-71
2022/10/04 03:23:42;;;;;;;;;;;6.10;99.90;;;;;;5064479;28;20255;-71
2022/10/04 03:26:14;;;;;;;;;;;6.10;99.90;;;;;;5064211;28;19987;-72
2022/10/04 03:28:41;;;;;;;;;;;6.10;99.90;;;;;;5065278;28;19927;-71
2022/10/04 03:31:08;;;;;;;;;;;6.00;99.90;;;;;;5065227;28;19920;-72
2022/10/04 03:33:34;;;;;;;;;;;6.00;99.90;;;;;;5064735;28;19921;-72
2022/10/04 03:36:01;;;;;;;;;;;6.00;99.90;;;;;;5064029;28;19992;-72
2022/10/04 03:38:32;;;;;;;;;;;5.90;99.90;;;;;;5064731;28;19927;-72
2022/10/04 03:41:00;;;;;;;;;;;5.90;99.90;;;;;;5064537;28;19929;-72
2022/10/04 03:43:29;;;;;;;;;;;5.80;99.90;;;;;;5064425;28;19927;-72
2022/10/04 03:45:56;;;;;;;;;;;5.80;99.90;;;;;;5064531;28;19920;-70
2022/10/04 03:48:27;;;;;;;;;;;5.70;99.90;;;;;;5056350;28;19958;-72
2022/10/04 03:50:54;;;;;;;;;;;5.70;99.90;;;;;;5064337;28;19921;-71
2022/10/04 03:53:27;;;;;;;;;;;5.70;99.90;;;;;;5057839;28;19920;-72
2022/10/04 03:55:55;;;;;;;;;;;5.70;99.90;;;;;;5050188;28;19987;-72
2022/10/04 03:58:22;;;;;;;;;;;5.70;99.90;;;;;;5060039;28;19948;-72
2022/10/04 04:00:56;;;;;;;;;;;5.70;99.90;;;;;;5064883;28;19949;-72
2022/10/04 04:03:26;;;;;;;;;;;5.70;99.90;;;;;;5063665;28;19920;-71
2022/10/04 04:05:54;;;;;;;;;;;5.70;99.90;;;;;;5062828;28;19980;-71
2022/10/04 04:08:26;;;;;;;;;;;5.70;99.90;;;;;;5064247;28;19928;-72
2022/10/04 04:10:54;;;;;;;;;;;5.70;99.90;;;;;;5063954;28;19984;-71
2022/10/04 04:13:25;;;;;;;;;;;5.70;99.90;;;;;;5060032;28;20020;-72
2022/10/04 04:15:53;;;;;;;;;;;5.70;99.90;;;;;;5046197;28;20000;-72
2022/10/04 04:18:21;;;;;;;;;;;5.70;99.90;;;;;;5052469;28;19928;-72
2022/10/04 04:20:49;;;;;;;;;;;5.70;99.90;;;;;;5063803;28;19927;-72
2022/10/04 04:23:22;;;;;;;;;;;5.70;99.90;;;;;;5067921;28;20161;-72
2022/10/04 04:25:50;;;;;;;;;;;5.70;99.90;;;;;;5109676;22;20039;-92
2022/10/04 04:28:24;;;;;;;;;;;5.70;99.90;;;;;;5085834;28;19921;-91
2022/10/04 04:30:53;;;;;;;;;;;5.60;99.90;;;;;;5079353;28;20385;-90
2022/10/04 04:33:24;;;;;;;;;;;5.60;99.90;;;;;;5054401;28;19928;-91
2022/10/04 04:35:54;;;;;;;;;;;5.60;99.90;;;;;;5046822;28;19952;-91
2022/10/04 04:38:22;;;;;;;;;;;5.60;99.90;;;;;;5063722;28;19920;-91
2022/10/04 04:40:49;;;;;;;;;;;5.60;99.90;;;;;;5067452;28;20176;-91
2022/10/04 04:43:18;;;;;;;;;;;5.60;99.90;;;;;;5065850;28;19921;-91
2022/10/04 04:45:47;;;;;;;;;;;5.60;99.90;;;;;;5065182;28;19921;-92
2022/10/04 04:48:17;;;;;;;;;;;5.60;99.90;;;;;;5067842;28;19944;-92
2022/10/04 04:50:48;;;;;;;;;;;5.60;99.90;;;;;;5070880;28;19944;-91
2022/10/04 04:53:18;;;;;;;;;;;5.60;99.90;;;;;;5060679;28;19966;-92
2022/10/04 04:55:48;;;;;;;;;;;5.60;99.90;;;;;;5063480;28;19984;-92
2022/10/04 04:58:20;;;;;;;;;;;5.60;99.90;;;;;;5064681;28;19921;-92
2022/10/04 05:01:09;;;;;;;;;;;5.60;99.90;;;;;;5073275;28;19921;-91
2022/10/04 05:03:38;;;;;;;;;;;5.70;99.90;;;;;;5068818;28;19955;-91
2022/10/04 05:06:06;;;;;;;;;;;5.70;99.90;;;;;;5072967;28;19942;-92
2022/10/04 05:08:34;;;;;;;;;;;5.60;99.90;;;;;;5071978;28;19928;-91
2022/10/04 05:11:05;;;;;;;;;;;5.60;99.90;;;;;;5065116;28;19928;-92
2022/10/04 05:13:35;;;;;;;;;;;5.60;99.90;;;;;;5060600;28;19921;-91
2022/10/04 05:16:02;;;;;;;;;;;5.60;99.90;;;;;;5049786;28;19945;-92
2022/10/04 05:18:30;;;;;;;;;;;5.60;99.90;;;;;;5065334;28;19967;-94
2022/10/04 05:21:02;;;;;;;;;;;5.50;99.90;;;;;;5076879;28;19913;-93
2022/10/04 05:23:29;;;;;;;;;;;5.90;99.90;;;;;;5077203;28;19951;-92
2022/10/04 05:25:59;;;;;;;;;;;5.60;99.90;;;;;;5076800;28;19943;-93
2022/10/04 05:28:25;;;;;;;;;;;5.60;99.90;;;;;;5077336;28;19929;-93
2022/10/04 05:31:02;;;;;;;;;;;5.60;99.90;;;;;;5076305;28;19930;-92
2022/10/04 05:33:38;;;;;;;;;;;5.60;99.90;;;;;;5077256;28;19917;-95
2022/10/04 05:36:21;;;;;;;;;;;5.60;99.90;;;;;;5076695;28;19913;-95
2022/10/04 05:38:51;;;;;;;;;;;5.60;99.90;;;;;;5077224;28;19912;-92
2022/10/04 05:41:20;;;;;;;;;;;5.60;99.90;;;;;;5077349;28;19977;-93
2022/10/04 05:43:48;;;;;;;;;;;5.60;99.90;;;;;;5077205;28;19935;-93
2022/10/04 05:46:17;;;;;;;;;;;5.60;99.90;;;;;;5076883;28;19935;-93
2022/10/04 05:48:45;;;;;;;;;;;5.60;99.90;;;;;;5076911;28;19915;-92
2022/10/04 05:51:15;;;;;;;;;;;5.60;99.90;;;;;;5077271;28;19909;-92
2022/10/04 05:53:41;;;;;;;;;;;5.60;99.90;;;;;;5076370;28;19912;-93
2022/10/04 05:56:17;;;;;;;;;;;5.60;99.90;;;;;;5076415;28;19940;-93
2022/10/04 05:58:53;;;;;;;;;;;5.70;99.90;;;;;;5076351;28;19971;-95
2022/10/04 06:01:26;;;;;;;;;;;5.50;99.90;;;;;;5076883;28;19972;-93
2022/10/04 06:04:10;;;;;;;;;;;5.50;99.90;;;;;;5077103;28;19908;-92
2022/10/04 06:06:40;;;;;;;;;;;5.50;99.90;;;;;;5044014;28;19936;-92
2022/10/04 06:09:10;;;;;;;;;;;5.60;99.90;;;;;;5077117;28;19916;-93
2022/10/04 06:11:42;;;;;;;;;;;5.50;99.90;;;;;;5076979;28;19909;-93
2022/10/04 06:14:28;;;;;;;;;;;5.90;99.90;;;;;;5077083;28;19928;-93
2022/10/04 06:17:02;;;;;;;;;;;5.60;99.90;;;;;;5069993;28;19909;-95
2022/10/04 06:19:48;;;;;;;;;;;5.60;99.90;;;;;;5077036;28;19909;-93
2022/10/04 06:22:17;;;;;;;;;;;5.70;99.90;;;;;;5077083;28;19919;-93
2022/10/04 06:24:46;;;;;;;;;;;5.70;99.90;;;;;;5075832;28;19924;-92
2022/10/04 06:27:16;;;;;;;;;;;5.80;99.90;;;;;;5077228;28;20013;-95
2022/10/04 06:29:45;;;;;;;;;;;5.80;99.90;;;;;;5080336;28;19937;-92
2022/10/04 06:32:25;;;;;;;;;;;5.90;99.90;;;;;;5080605;28;19912;-93
2022/10/04 06:35:04;;;;;;;;;;;6.00;99.90;;;;;;5063799;28;19908;-92
2022/10/04 06:37:39;;;;;;;;;;;6.00;99.90;;;;;;5080529;28;19921;-92
2022/10/04 06:40:16;;;;;;;;;;;6.10;99.90;;;;;;5060419;28;19909;-92
2022/10/04 06:42:48;;;;;;;;;;;6.00;99.90;;;;;;5063314;28;19919;-94
2022/10/04 06:45:36;;;;;;;;;;;6.10;99.90;;;;;;5079727;28;19913;-94
2022/10/04 06:48:15;;;;;;;;;;;6.10;99.90;;;;;;5080306;28;19943;-95
2022/10/04 06:50:48;;;;;;;;;;;6.20;99.90;;;;;;5080347;28;19915;-95
2022/10/04 06:53:24;;;;;;;;;;;6.30;99.90;;;;;;5080052;28;19936;-95
2022/10/04 06:56:01;;;;;;;;;;;6.20;99.90;;;;;;5072238;28;19924;-95
2022/10/04 06:58:43;;;;;;;;;;;6.30;99.90;;;;;;5079857;28;19917;-95
2022/10/04 07:01:15;;;;;;;;;;;6.40;99.90;;;;;;5060152;28;19913;-94
2022/10/04 07:03:47;;;;;;;;;;;6.50;99.90;;;;;;5060518;28;19941;-95
2022/10/04 07:06:15;;;;;;;;;;;6.50;99.90;;;;;;5057771;28;19936;-95
2022/10/04 07:08:47;;;;;;;;;;;6.60;99.90;;;;;;5070266;28;19909;-94
2022/10/04 07:11:15;;;;;;;;;;;6.60;99.90;;;;;;5079319;28;19919;-96
2022/10/04 07:13:44;;;;;;;;;;;6.70;99.90;;;;;;5079250;28;19919;-95
2022/10/04 07:16:22;;;;;;;;;;;6.70;99.90;;;;;;5079084;28;19940;-94
2022/10/04 07:18:52;;;;;;;;;;;6.90;99.90;;;;;;5079482;28;19912;-94
2022/10/04 07:21:20;;;;;;;;;;;6.80;99.90;;;;;;5079553;28;19913;-93
2022/10/04 07:23:49;;;;;;;;;;;6.90;99.90;;;;;;5079379;28;19972;-95
2022/10/04 07:26:20;;;;;;;;;;;6.90;99.90;;;;;;5079080;28;19913;-94
2022/10/04 07:31:34;;;;;;;;;;;7.70;99.90;;;;;;5070948;28;20015;-94
2022/10/04 07:34:04;;;;;;;;;;;7.10;99.90;;;;;;5078941;28;19915;-94
2022/10/04 07:36:38;;;;;;;;;;;7.20;99.90;;;;;;5078634;28;19920;-96
2022/10/04 07:39:10;;;;;;;;;;;7.30;99.90;;;;;;5079055;28;19909;-94
2022/10/04 07:41:39;;;;;;;;;;;7.30;99.90;;;;;;5079402;28;19932;-95
2022/10/04 07:44:14;;;;;;;;;;;7.40;99.90;;;;;;5078840;28;19912;-95
2022/10/04 07:46:46;;;;;;;;;;;7.40;99.90;;;;;;5078413;28;19931;-93
2022/10/04 07:49:14;;;;;;;;;;;7.60;99.90;;;;;;5079069;28;19909;-95
2022/10/04 07:51:44;;;;;;;;;;;7.70;99.90;;;;;;5078773;28;19909;-95
2022/10/04 07:54:16;;;;;;;;;;;7.60;99.90;;;;;;5073751;28;19909;-94
2022/10/04 07:56:57;;;;;;;;;;;7.70;99.90;;;;;;5077076;28;19940;-94
2022/10/04 07:59:33;;;;;;;;;;;7.70;99.90;;;;;;5078961;28;19909;-94
2022/10/04 08:02:10;;;;;;;;;;;7.80;99.90;;;;;;5058936;28;19936;-95
2022/10/04 08:04:41;;;;;;;;;;;7.90;99.90;;;;;;5075256;28;19963;-95
2022/10/04 08:07:15;;;;;;;;;;;8.00;99.90;;;;;;5077364;28;19924;-95
2022/10/04 08:09:52;;;;;;;;;;;8.00;99.90;;;;;;5078535;28;19921;-95
2022/10/04 08:12:21;;;;;;;;;;;7.50;99.90;;;;;;5078489;28;19920;-95
2022/10/04 08:14:53;;;;;;;;;;;8.90;99.90;;;;;;5077998;28;19908;-95
2022/10/04 08:17:27;;;;;;;;;;;8.20;99.90;;;;;;5078743;28;19915;-95
2022/10/04 08:19:59;;;;;;;;;;;8.30;99.90;;;;;;5078494;28;19976;-95
2022/10/04 08:22:32;;;;;;;;;;;8.20;99.90;;;;;;5078480;28;19913;-95
2022/10/04 08:25:03;;;;;;;;;;;8.40;99.90;;;;;;5077780;28;19913;-95
2022/10/04 08:27:35;;;;;;;;;;;8.50;99.90;;;;;;5078300;28;19908;-95
2022/10/04 08:30:03;;;;;;;;;;;8.60;99.90;;;;;;5077825;28;19917;-95
2022/10/04 08:32:32;;;;;;;;;;;8.70;99.90;;;;;;5078345;28;19909;-95
2022/10/04 08:35:18;;;;;;;;;;;8.70;99.90;;;;;;5077827;28;19913;-95
2022/10/04 08:37:49;;;;;;;;;;;8.80;99.90;;;;;;5071517;28;19913;-94
2022/10/04 08:40:40;;;;;;;;;;;8.90;99.90;;;;;;5078458;28;19924;-95
2022/10/04 08:43:32;;;;;;;;;;;8.90;99.90;;;;;;5078316;28;19936;-95
2022/10/04 08:46:14;;;;;;;;;;;9.10;99.90;;;;;;5063230;28;19913;-96
2022/10/04 08:48:56;;;;;;;;;;;9.20;99.90;;;;;;5077742;28;19912;-95
2022/10/04 08:51:40;;;;;;;;;;;9.20;99.90;;;;;;5075893;28;19912;-95
2022/10/04 08:54:34;;;;;;;;;;;9.40;99.90;;;;;;5077967;28;19932;-94
2022/10/04 08:57:32;;;;;;;;;;;9.50;99.90;;;;;;5070815;28;19979;-95
2022/10/04 09:00:08;;;;;;;;;;;9.70;99.90;;;;;;5077632;28;19913;-95
2022/10/04 09:02:53;;;;;;;;;;;9.80;99.90;;;;;;5077983;28;19909;-94
2022/10/04 09:05:26;;;;;;;;;;;9.90;99.90;;;;;;5035001;28;19943;-94
2022/10/04 09:08:04;;;;;;;;;;;10.10;99.90;;;;;;5092409;22;19916;-70
2022/10/04 09:10:35;;;;;;;;;;;10.30;99.90;;;;;;5062804;28;19925;-70
2022/10/04 09:13:21;;;;;;;;;;;10.50;99.90;;;;;;5063419;28;19983;-70
2022/10/04 09:15:56;;;;;;;;;;;10.60;99.90;;;;;;5062625;28;19921;-70
2022/10/04 09:18:37;;;;;;;;;;;10.80;99.90;;;;;;5062966;28;19966;-70
2022/10/04 09:21:09;;;;;;;;;;;10.90;99.90;;;;;;5076843;22;20211;-75
2022/10/04 09:23:54;;;;;;;;;;;11.10;99.90;;;;;;5082257;28;20266;-75
2022/10/04 09:26:21;;;;;;;;;;;11.20;99.90;;;;;;5072886;28;19925;-75
2022/10/04 09:29:07;;;;;;;;;;;11.30;99.90;;;;;;5083680;28;19959;-75
2022/10/04 09:31:51;;;;;;;;;;;11.40;99.90;;;;;;5103362;28;19983;-75
2022/10/04 09:34:25;;;;;;;;;;;11.50;99.90;;;;;;5083066;28;19927;-75
2022/10/04 09:37:01;;;;;;;;;;;11.60;99.90;;;;;;5083277;28;19920;-73
2022/10/04 09:39:38;;;;;;;;;;;11.60;99.90;;;;;;5090492;28;19939;-73
2022/10/04 09:42:23;;;;;;;;;;;11.70;99.90;;;;;;5097041;28;19920;-74
2022/10/04 09:44:55;;;;;;;;;;;11.80;99.90;;;;;;5103215;28;19920;-76
2022/10/04 09:47:37;;;;;;;;;;;11.90;99.90;;;;;;5103314;28;19991;-75
2022/10/04 09:50:20;;;;;;;;;;;12.00;99.90;;;;;;5093938;28;20188;-75
2022/10/04 09:52:54;;;;;;;;;;;12.10;99.90;;;;;;5103072;28;19945;-76
2022/10/04 09:55:40;;;;;;;;;;;12.10;99.90;;;;;;5078110;28;19927;-74
2022/10/04 09:58:15;;;;;;;;;;;12.20;99.90;;;;;;5095883;28;19927;-76
2022/10/04 10:00:46;;;;;;;;;;;12.20;99.90;;;;;;5083057;28;19960;-76
2022/10/04 10:03:34;;;;;;;;;;;12.30;99.90;;;;;;5086171;28;19963;-74
2022/10/04 10:06:22;;;;;;;;;;;12.40;99.90;;;;;;5102545;28;19920;-76
2022/10/04 10:08:56;;;;;;;;;;;12.50;99.90;;;;;;5098939;28;20154;-77
2022/10/04 10:14:19;;;;;;;;;;;12.70;99.90;;;;;;5087693;28;19922;-77
2022/10/04 10:16:52;;;;;;;;;;;12.80;99.90;;;;;;5106313;28;19991;-76
2022/10/04 10:19:30;;;;;;;;;;;12.90;99.90;;;;;;5094845;28;19970;-76
2022/10/04 10:22:09;;;;;;;;;;;13.00;99.90;;;;;;5086430;28;19988;-76
2022/10/04 10:25:00;;;;;;;;;;;13.20;99.90;;;;;;5090256;28;19920;-76
2022/10/04 10:27:36;;;;;;;;;;;13.30;99.90;;;;;;5106779;28;19920;-76
2022/10/04 10:30:29;;;;;;;;;;;13.50;99.90;;;;;;5088846;28;20097;-77
2022/10/04 10:33:19;;;;;;;;;;;13.60;99.90;;;;;;5063705;28;19920;-76
2022/10/04 10:35:57;;;;;;;;;;;13.70;99.90;;;;;;5089378;28;19920;-77
2022/10/04 10:38:34;;;;;;;;;;;13.70;99.90;;;;;;5069209;28;19927;-76
2022/10/04 10:41:11;;;;;;;;;;;13.80;99.90;;;;;;5089488;28;19970;-76
2022/10/04 10:43:45;;;;;;;;;;;13.80;99.90;;;;;;5086075;28;19958;-74
2022/10/04 10:46:29;;;;;;;;;;;13.90;99.90;;;;;;5065880;28;19921;-76
2022/10/04 10:49:17;;;;;;;;;;;14.00;99.90;;;;;;5068780;28;19928;-75
2022/10/04 10:51:58;;;;;;;;;;;14.10;99.90;;;;;;5094371;28;19984;-76
2022/10/04 10:54:38;;;;;;;;;;;14.30;99.90;;;;;;5091474;28;19928;-76
2022/10/04 10:57:10;;;;;;;;;;;14.40;99.90;;;;;;5079314;28;19921;-77
2022/10/04 10:59:49;;;;;;;;;;;14.40;99.90;;;;;;5096769;28;19927;-77
2022/10/04 11:02:36;;;;;;;;;;;14.40;99.90;;;;;;5105972;28;19920;-76
2022/10/04 11:05:17;;;;;;;;;;;14.30;99.90;;;;;;5094401;28;19988;-76
2022/10/04 11:07:50;;;;;;;;;;;14.30;99.90;;;;;;5092944;28;19920;-76
2022/10/04 11:10:41;;;;;;;;;;;14.50;99.90;;;;;;5105442;28;19920;-76
2022/10/04 11:13:29;;;;;;;;;;;14.50;99.90;;;;;;5104978;28;19973;-76
2022/10/04 11:16:11;;;;;;;;;;;14.70;99.90;;;;;;5105357;28;19983;-76
2022/10/04 11:18:57;;;;;;;;;;;14.90;99.90;;;;;;5099473;28;19919;-76
2022/10/04 11:21:42;;;;;;;;;;;15.00;99.90;;;;;;5102816;28;19924;-76
2022/10/04 11:24:29;;;;;;;;;;;15.10;99.90;;;;;;5085412;28;20123;-77
2022/10/04 11:26:59;;;;;;;;;;;15.20;99.90;;;;;;5084812;28;19920;-76
2022/10/04 11:29:35;;;;;;;;;;;15.20;99.90;;;;;;5103684;28;19920;-76
2022/10/04 11:32:19;;;;;;;;;;;15.10;99.90;;;;;;5096277;28;19979;-76
2022/10/04 11:35:00;;;;;;;;;;;15.20;99.90;;;;;;5076800;28;19927;-74
2022/10/04 11:37:40;;;;;;;;;;;15.20;99.90;;;;;;5081399;28;19920;-76
2022/10/04 11:40:16;;;;;;;;;;;15.30;99.90;;;;;;5095179;28;20092;-76
2022/10/04 11:42:53;;;;;;;;;;;15.60;99.90;;;;;;5090550;28;19920;-76
2022/10/04 11:45:35;;;;;;;;;;;15.80;99.90;;;;;;5085015;28;19920;-75
2022/10/04 11:48:10;;;;;;;;;;;16.00;99.90;;;;;;5084925;28;19958;-75
2022/10/04 11:50:48;;;;;;;;;;;16.00;99.90;;;;;;5085254;28;19927;-74
2022/10/04 11:53:29;;;;;;;;;;;16.20;99.90;;;;;;5064928;28;20162;-76
2022/10/04 11:56:12;;;;;;;;;;;16.30;99.90;;;;;;5064812;28;19920;-76
2022/10/04 11:58:45;;;;;;;;;;;16.40;99.90;;;;;;5065042;28;19927;-76
2022/10/04 12:01:20;;;;;;;;;;;16.60;99.90;;;;;;5064738;28;19920;-77
2022/10/04 12:04:03;;;;;;;;;;;16.70;99.90;;;;;;5064772;28;19927;-76
2022/10/04 12:06:44;;;;;;;;;;;16.80;99.90;;;;;;5063637;28;19927;-76
2022/10/04 12:09:16;;;;;;;;;;;16.90;99.90;;;;;;5064784;28;19927;-75
2022/10/04 12:15:04;;;;;;;;;;;17.00;99.90;;;;;;5002920;28;20176;-75
2022/10/04 12:17:58;;;;;;;;;;;17.20;99.90;;;;;;5059810;28;19959;-74
2022/10/04 12:20:33;;;;;;;;;;;17.30;99.90;;;;;;5028756;28;20000;-76
2022/10/04 12:23:11;;;;;;;;;;;17.50;99.90;;;;;;5063962;28;20208;-76
2022/10/04 12:25:57;;;;;;;;;;;17.60;99.90;;;;;;5063628;28;19983;-76
2022/10/04 12:28:34;;;;;;;;;;;17.80;99.90;;;;;;5064080;28;19921;-75
2022/10/04 12:31:07;;;;;;;;;;;17.90;99.90;;;;;;5067805;28;19992;-76
2022/10/04 12:33:37;;;;;;;;;;;18.00;99.90;;;;;;5085852;28;19924;-75
2022/10/04 12:36:13;;;;;;;;;;;18.10;99.90;;;;;;5097361;28;19928;-76
2022/10/04 12:38:45;;;;;;;;;;;18.10;99.90;;;;;;5085333;28;19927;-75
2022/10/04 12:41:20;;;;;;;;;;;18.40;99.90;;;;;;5081397;28;19970;-75
2022/10/04 12:43:55;;;;;;;;;;;18.60;99.90;;;;;;5083625;28;19984;-75
2022/10/04 12:46:28;;;;;;;;;;;18.80;99.90;;;;;;5083403;28;19962;-75
2022/10/04 12:49:02;;;;;;;;;;;18.90;99.90;;;;;;5083687;28;19932;-75
2022/10/04 12:51:42;;;;;;;;;;;18.90;99.90;;;;;;5083585;28;19927;-76
2022/10/04 12:54:15;;;;;;;;;;;19.00;99.90;;;;;;5084971;28;20267;-76
2022/10/04 12:56:46;;;;;;;;;;;19.00;99.90;;;;;;5084685;28;20217;-76
2022/10/04 12:59:30;;;;;;;;;;;18.90;99.90;;;;;;5103448;28;20225;-76
2022/10/04 13:02:03;;;;;;;;;;;19.00;99.90;;;;;;5096142;28;19920;-75
2022/10/04 13:04:33;;;;;;;;;;;19.20;99.90;;;;;;5085108;28;19932;-74
2022/10/04 13:07:08;;;;;;;;;;;19.40;99.90;;;;;;5083162;28;20096;-76
2022/10/04 13:09:43;;;;;;;;;;;19.50;99.90;;;;;;5083146;28;19920;-76
2022/10/04 13:12:17;;;;;;;;;;;19.70;99.90;;;;;;5083358;28;19927;-75
2022/10/04 13:14:58;;;;;;;;;;;20.00;99.90;;;;;;5093008;28;19927;-74
2022/10/04 13:17:30;;;;;;;;;;;20.10;99.90;;;;;;5065310;28;19928;-73
2022/10/04 13:20:03;;;;;;;;;;;20.20;99.90;;;;;;5061949;28;19988;-72
2022/10/04 13:22:33;;;;;;;;;;;20.20;99.90;;;;;;5065406;28;19980;-74
2022/10/04 13:25:07;;;;;;;;;;;20.10;99.90;;;;;;5092688;28;19920;-74
2022/10/04 13:27:39;;;;;;;;;;;20.20;99.90;;;;;;5084855;28;19920;-74
2022/10/04 13:30:07;;;;;;;;;;;20.30;99.90;;;;;;5082779;28;19927;-75
2022/10/04 13:32:40;;;;;;;;;;;20.40;99.90;;;;;;5092216;28;19926;-74
2022/10/04 13:35:13;;;;;;;;;;;20.40;99.90;;;;;;5078146;28;19958;-70
2022/10/04 13:37:45;;;;;;;;;;;20.20;99.90;;;;;;5082494;28;19956;-74
2022/10/04 13:40:24;;;;;;;;;;;20.20;99.90;;;;;;5087978;28;19920;-74
2022/10/04 13:43:00;;;;;;;;;;;20.30;99.90;;;;;;5084653;28;19920;-75
2022/10/04 13:45:34;;;;;;;;;;;20.40;99.90;;;;;;5084958;28;19920;-73
2022/10/04 13:48:12;;;;;;;;;;;20.50;99.90;;;;;;5083727;28;19920;-75
2022/10/04 13:50:57;;;;;;;;;;;20.60;99.90;;;;;;5086345;28;19920;-73
2022/10/04 13:56:38;;;;;;;;;;;20.60;99.90;;;;;;5086337;28;19955;-72
2022/10/04 13:59:10;;;;;;;;;;;20.70;99.90;;;;;;5070090;28;19966;-73
2022/10/04 14:02:08;;;;;;;;;;;20.70;99.90;;;;;;5085170;28;19966;-75
2022/10/04 14:04:56;;;;;;;;;;;20.70;99.90;;;;;;5083785;28;19970;-75
2022/10/04 14:07:33;;;;;;;;;;;20.70;99.90;;;;;;5084589;28;19920;-75
2022/10/04 14:10:23;;;;;;;;;;;20.90;99.90;;;;;;5083505;28;20171;-73
2022/10/04 14:13:04;;;;;;;;;;;21.00;99.90;;;;;;5102384;28;19927;-74
2022/10/04 14:15:42;;;;;;;;;;;21.20;99.90;;;;;;5066362;28;19927;-74
2022/10/04 14:18:26;;;;;;;;;;;21.30;99.90;;;;;;5065683;28;19953;-74
2022/10/04 14:21:06;;;;;;;;;;;21.40;99.90;;;;;;5075234;28;19928;-74
2022/10/04 14:23:38;;;;;;;;;;;21.30;99.90;;;;;;5089068;28;19927;-75
2022/10/04 14:26:18;;;;;;;;;;;21.20;99.90;;;;;;5092520;28;19927;-75
2022/10/04 14:28:56;;;;;;;;;;;21.30;99.90;;;;;;5103668;28;19934;-74
2022/10/04 14:31:32;;;;;;;;;;;21.20;99.90;;;;;;5087293;28;19924;-73
2022/10/04 14:34:14;;;;;;;;;;;21.20;99.90;;;;;;5086222;28;19927;-74
2022/10/04 14:36:51;;;;;;;;;;;21.20;99.90;;;;;;5085812;28;20123;-70
2022/10/04 14:39:26;;;;;;;;;;;21.30;99.90;;;;;;5086051;28;20257;-75
2022/10/04 14:42:11;;;;;;;;;;;21.30;99.90;;;;;;5084875;28;19966;-75
2022/10/04 14:45:03;;;;;;;;;;;21.30;99.90;;;;;;5078084;28;20155;-76
2022/10/04 14:47:46;;;;;;;;;;;21.40;99.90;;;;;;5085819;28;19956;-75
2022/10/04 14:50:24;;;;;;;;;;;21.40;99.90;;;;;;5104382;28;19926;-74
2022/10/04 14:52:58;;;;;;;;;;;21.30;99.90;;;;;;5091363;28;19920;-75
2022/10/04 14:55:35;;;;;;;;;;;21.30;99.90;;;;;;5084848;28;19920;-75
2022/10/04 14:58:13;;;;;;;;;;;21.20;99.90;;;;;;5085829;28;19920;-75
2022/10/04 15:00:53;;;;;;;;;;;20.90;99.90;;;;;;5083608;28;19960;-76
2022/10/04 15:03:29;;;;;;;;;;;20.80;99.90;;;;;;5084696;28;19920;-75
2022/10/04 15:06:11;;;;;;;;;;;20.80;99.90;;;;;;5085485;28;19927;-77
2022/10/04 15:08:44;;;;;;;;;;;20.80;99.90;;;;;;5086033;28;19926;-76
2022/10/04 15:11:13;;;;;;;;;;;20.80;99.90;;;;;;5087634;28;20436;-72
2022/10/04 15:13:47;;;;;;;;;;;20.90;99.90;;;;;;5082659;28;20226;-74
2022/10/04 15:16:19;;;;;;;;;;;20.80;99.90;;;;;;5082672;28;19921;-72
2022/10/04 15:18:53;;;;;;;;;;;20.80;99.90;;;;;;5085784;28;19924;-74
2022/10/04 15:21:31;;;;;;;;;;;20.70;99.90;;;;;;5085563;28;19927;-73